Time;durP1;ratioP1;P1;durP2;ratioP2;P2;SDS_P1;SDS_P2;PMS_P1;PMS_P2;Temp;Humidity;BMP_temperature;BMP_pressure;BME280_temperature;BME280_humidity;BME280_pressure;Samples;Min_cycle;Max_cycle;Signal;HPM_P1;HPM_P2
2023/05/22 00:00:51;;;;;;;12.25;6.65;;;;;;;21.14;51.04;99080.91;4331916;33;34264;-96
2023/05/22 00:03:19;;;;;;;8.45;6.07;;;;;;;21.20;50.59;99088.59;4330318;33;34837;-92
2023/05/22 00:05:47;;;;;;;10.93;6.43;;;;;;;21.19;50.57;99084.25;4330351;33;34120;-94
2023/05/22 00:08:14;;;;;;;11.93;6.70;;;;;;;21.34;50.34;99085.56;4331135;33;33967;-95
2023/05/22 00:10:42;;;;;;;10.90;6.40;;;;;;;21.26;50.89;99083.16;4317708;33;34050;-93
2023/05/22 00:13:09;;;;;;;9.55;6.00;;;;;;;21.22;51.33;99083.31;4322030;33;34895;-94
2023/05/22 00:15:37;;;;;;;10.48;6.30;;;;;;;21.15;51.52;99087.91;4331116;33;33359;-94
2023/05/22 00:18:05;;;;;;;10.15;6.32;;;;;;;21.28;51.16;99083.09;4331102;33;34664;-92
2023/05/22 00:20:37;;;;;;;10.27;5.72;;;;;;;21.28;51.63;99083.94;4315428;33;33136;-92
2023/05/22 00:23:10;;;;;;;10.13;6.00;;;;;;;21.19;51.55;99078.13;4319984;33;34041;-90
2023/05/22 00:25:40;;;;;;;10.65;5.95;;;;;;;21.22;51.57;99076.25;4316805;33;33278;-91
2023/05/22 00:28:08;;;;;;;8.88;5.82;;;;;;;21.21;51.55;99078.91;4322310;33;33660;-92
2023/05/22 00:30:35;;;;;;;10.35;6.12;;;;;;;21.10;52.09;99080.13;4318602;33;34139;-91
2023/05/22 00:33:03;;;;;;;10.80;5.80;;;;;;;21.05;51.94;99075.91;4313442;33;34254;-95
2023/05/22 00:35:32;;;;;;;12.63;5.95;;;;;;;21.01;51.69;99072.50;4317951;33;33409;-96
2023/05/22 00:38:02;;;;;;;8.55;5.87;;;;;;;20.94;51.69;99076.22;4321836;33;33964;-94
2023/05/22 00:40:29;;;;;;;9.63;6.12;;;;;;;20.83;51.96;99076.56;4331598;33;33817;-93
2023/05/22 00:42:58;;;;;;;11.00;5.55;;;;;;;20.63;52.37;99079.78;4328401;33;33892;-92
2023/05/22 00:45:26;;;;;;;10.73;5.95;;;;;;;20.65;51.71;99085.91;4298899;33;32293;-93
2023/05/22 00:47:54;;;;;;;10.25;6.15;;;;;;;20.64;52.26;99080.66;4319418;33;34032;-92
2023/05/22 00:50:21;;;;;;;10.30;6.00;;;;;;;20.65;52.34;99077.13;4316911;33;33865;-92
2023/05/22 00:52:49;;;;;;;9.75;5.57;;;;;;;20.58;52.29;99072.94;4326998;33;35011;-92
2023/05/22 00:55:16;;;;;;;9.35;5.78;;;;;;;20.40;52.27;99080.44;4329320;33;34164;-91
2023/05/22 00:57:44;;;;;;;8.68;5.32;;;;;;;20.26;52.87;99077.31;4330617;33;33928;-94
2023/05/22 01:00:14;;;;;;;9.20;5.75;;;;;;;20.37;52.63;99085.78;4325369;33;34161;-95
2023/05/22 01:02:41;;;;;;;11.93;5.62;;;;;;;20.30;52.62;99070.19;4325443;33;35026;-95
2023/05/22 01:05:11;;;;;;;13.55;6.57;;;;;;;20.34;52.33;99074.47;4328158;33;34374;-95
2023/05/22 01:07:39;;;;;;;9.90;6.07;;;;;;;20.17;52.85;99072.31;4324697;33;32224;-91
2023/05/22 01:10:07;;;;;;;9.32;5.72;;;;;;;20.07;53.00;99074.34;4317044;33;35076;-92
2023/05/22 01:12:41;;;;;;;8.15;5.18;;;;;;;20.14;52.93;99078.53;4324977;33;34267;-90
2023/05/22 01:15:41;;;;;;;12.52;5.40;;;;;;;20.25;52.65;99072.97;4325094;33;34606;-96
2023/05/22 01:18:30;;;;;;;10.45;5.78;;;;;;;20.07;53.26;99063.81;4301786;33;33378;-94
2023/05/22 01:21:23;;;;;;;8.48;5.18;;;;;;;20.07;53.37;99065.56;4317851;33;34940;-96
2023/05/22 01:23:52;;;;;;;9.77;5.62;;;;;;;20.15;53.01;99064.47;4313353;33;35017;-94
2023/05/22 01:26:36;;;;;;;8.95;5.53;;;;;;;19.80;53.73;99070.69;4321680;33;33302;-96
2023/05/22 01:29:19;;;;;;;9.35;4.90;;;;;;;19.95;52.89;99068.56;4322750;33;33876;-96
2023/05/22 01:31:49;;;;;;;11.77;5.43;;;;;;;19.96;52.86;99071.13;4320743;33;33704;-96
2023/05/22 01:34:17;;;;;;;8.85;5.00;;;;;;;19.92;53.34;99069.47;4317296;33;33534;-95
2023/05/22 01:36:45;;;;;;;9.60;5.00;;;;;;;19.91;53.34;99067.75;4328131;33;33753;-96
2023/05/22 01:39:13;;;;;;;9.20;5.20;;;;;;;20.13;52.59;99068.06;4329331;33;33613;-96
2023/05/22 01:41:42;;;;;;;9.27;5.30;;;;;;;20.13;52.64;99068.91;4315863;33;34265;-94
2023/05/22 01:44:10;;;;;;;11.57;5.12;;;;;;;19.94;53.17;99065.06;4307589;33;33724;-96
2023/05/22 01:46:37;;;;;;;9.85;4.95;;;;;;;19.93;53.21;99066.84;4322185;33;33393;-95
2023/05/22 01:49:07;;;;;;;10.32;4.50;;;;;;;19.92;51.37;99059.81;4330441;33;33781;-96
2023/05/22 01:51:50;;;;;;;8.18;4.93;;;;;;;19.91;50.88;99057.25;4326872;33;34006;-94
2023/05/22 01:54:45;;;;;;;8.10;4.57;;;;;;;19.68;51.19;99049.97;4319148;33;33615;-93
2023/05/22 01:57:27;;;;;;;9.60;4.10;;;;;;;19.69;50.05;99046.41;4312577;33;34358;-95
2023/05/22 02:00:08;;;;;;;10.25;4.57;;;;;;;19.76;50.27;99042.72;4325820;33;34517;-94
2023/05/22 02:02:45;;;;;;;8.98;4.10;;;;;;;19.80;50.75;99038.25;4327783;33;33895;-95
2023/05/22 02:05:17;;;;;;;7.32;4.10;;;;;;;19.77;48.89;99035.69;4328620;33;33890;-93
2023/05/22 02:07:45;;;;;;;7.75;3.92;;;;;;;19.68;50.18;99036.81;4324090;33;33767;-94
2023/05/22 02:10:13;;;;;;;7.18;4.37;;;;;;;19.85;50.51;99042.50;4302933;33;33842;-92
2023/05/22 02:12:41;;;;;;;7.20;3.97;;;;;;;19.79;52.10;99047.91;4307271;33;34798;-96
2023/05/22 02:15:08;;;;;;;6.50;3.95;;;;;;;19.81;51.72;99038.22;4318108;33;35037;-92
2023/05/22 02:17:39;;;;;;;6.28;3.70;;;;;;;19.81;51.38;99040.84;4321975;33;34510;-96
2023/05/22 02:20:13;;;;;;;8.10;4.25;;;;;;;19.89;51.00;99038.88;4309686;33;33981;-95
2023/05/22 02:22:43;;;;;;;7.90;3.97;;;;;;;19.82;51.23;99041.72;4319522;33;35388;-95
2023/05/22 02:25:13;;;;;;;8.35;4.05;;;;;;;20.07;50.45;99036.62;4321251;33;33795;-93
2023/05/22 02:27:45;;;;;;;6.50;3.65;;;;;;;19.87;50.61;99035.41;4321520;33;33670;-96
2023/05/22 02:30:13;;;;;;;7.35;3.65;;;;;;;19.95;49.95;99034.34;4319238;33;33628;-94
2023/05/22 02:32:41;;;;;;;8.65;4.30;;;;;;;19.80;50.59;99041.75;4327496;33;34043;-95
2023/05/22 02:35:09;;;;;;;6.40;4.18;;;;;;;19.77;50.55;99039.19;4329986;33;34322;-94
2023/05/22 02:37:37;;;;;;;6.28;3.72;;;;;;;19.75;51.40;99035.75;4328925;33;33779;-95
2023/05/22 02:40:06;;;;;;;7.53;4.10;;;;;;;19.73;51.76;99032.28;4328988;33;33756;-95
2023/05/22 02:42:34;;;;;;;6.95;3.50;;;;;;;19.76;51.58;99031.34;4328560;33;33775;-95
2023/05/22 02:45:02;;;;;;;7.30;4.00;;;;;;;19.64;51.65;99028.13;4318149;33;34763;-95
2023/05/22 02:47:33;;;;;;;8.75;3.85;;;;;;;19.40;51.82;99024.34;4320311;33;33422;-95
2023/05/22 02:50:00;;;;;;;6.95;3.87;;;;;;;19.49;51.32;99022.38;4319628;33;33609;-96
2023/05/22 02:52:30;;;;;;;7.85;3.85;;;;;;;19.19;51.56;99020.47;4325168;33;34265;-95
2023/05/22 02:54:57;;;;;;;9.38;3.95;;;;;;;19.23;51.63;99028.28;4312782;33;33211;-93
2023/05/22 02:57:25;;;;;;;7.25;3.65;;;;;;;19.26;51.31;99031.72;4321294;33;34295;-96
2023/05/22 02:59:53;;;;;;;8.43;3.70;;;;;;;19.28;51.23;99024.66;4313743;33;34039;-96
2023/05/22 03:02:20;;;;;;;6.47;3.65;;;;;;;19.21;51.10;99025.72;4327313;33;34109;-96
2023/05/22 03:04:48;;;;;;;6.12;3.95;;;;;;;19.30;50.26;99028.09;4329469;33;34747;-96
2023/05/22 03:07:16;;;;;;;11.30;4.05;;;;;;;19.23;50.08;99026.53;4326866;33;33867;-93
2023/05/22 03:09:43;;;;;;;7.28;3.70;;;;;;;19.22;50.40;99034.47;4328559;33;33589;-96
2023/05/22 03:12:11;;;;;;;7.47;3.55;;;;;;;19.43;50.29;99028.66;4325577;33;34211;-94
2023/05/22 03:14:39;;;;;;;10.15;3.58;;;;;;;19.38;49.88;99027.91;4310855;33;33992;-96
2023/05/22 03:17:06;;;;;;;8.90;4.25;;;;;;;19.29;49.90;99021.12;4328438;33;33556;-96
2023/05/22 03:19:34;;;;;;;8.07;3.92;;;;;;;19.17;50.18;99021.44;4329569;33;34786;-94
2023/05/22 03:22:02;;;;;;;6.87;3.53;;;;;;;19.25;50.46;99023.88;4322764;33;35682;-95
2023/05/22 03:24:31;;;;;;;8.52;4.07;;;;;;;19.13;51.22;99022.38;4322807;33;34072;-92
2023/05/22 03:26:59;;;;;;;8.98;3.53;;;;;;;19.10;51.05;99027.72;4319367;33;34668;-95
2023/05/22 03:29:28;;;;;;;8.77;3.28;;;;;;;19.04;51.07;99025.25;4319852;33;34686;-95
2023/05/22 03:31:56;;;;;;;8.43;3.65;;;;;;;19.13;50.52;99019.75;4320844;33;34156;-93
2023/05/22 03:34:26;;;;;;;8.25;4.00;;;;;;;18.86;51.31;99022.12;4328265;33;34216;-94
2023/05/22 03:37:03;;;;;;;11.55;3.80;;;;;;;18.84;51.59;99026.56;4322574;33;32807;-93
2023/05/22 03:39:31;;;;;;;7.50;3.35;;;;;;;19.14;50.87;99016.25;4328586;33;33839;-95
2023/05/22 03:42:00;;;;;;;6.07;3.72;;;;;;;19.00;50.87;99019.19;4329472;33;34827;-91
2023/05/22 03:44:28;;;;;;;7.82;3.75;;;;;;;18.86;51.47;99027.38;4316892;33;34332;-94
2023/05/22 03:46:56;;;;;;;11.27;4.00;;;;;;;19.05;50.69;99027.81;4321706;33;33829;-94
2023/05/22 03:49:23;;;;;;;5.30;3.30;;;;;;;19.14;51.07;99021.50;4324126;33;33911;-95
2023/05/22 03:51:51;;;;;;;9.57;3.58;;;;;;;19.20;51.03;99019.56;4313433;33;34259;-91
2023/05/22 03:54:18;;;;;;;8.23;3.60;;;;;;;19.18;51.82;99020.53;4320471;33;34824;-92
2023/05/22 03:56:46;;;;;;;7.65;4.15;;;;;;;19.29;52.15;99020.28;4315353;33;32258;-96
2023/05/22 03:59:15;;;;;;;6.60;4.53;;;;;;;19.28;52.34;99019.41;4315080;33;34771;-93
2023/05/22 04:01:45;;;;;;;7.53;3.12;;;;;;;19.17;52.63;99024.91;4323732;33;33643;-92
2023/05/22 04:04:13;;;;;;;12.88;3.60;;;;;;;19.25;52.23;99019.47;4329485;33;34289;-95
2023/05/22 04:06:43;;;;;;;8.73;4.03;;;;;;;19.18;52.74;99020.53;4318773;33;33727;-91
2023/05/22 04:09:12;;;;;;;9.48;3.47;;;;;;;19.20;53.41;99024.81;4320308;33;34614;-94
2023/05/22 04:11:41;;;;;;;6.78;3.80;;;;;;;19.30;52.91;99030.72;4324842;33;34231;-94
2023/05/22 04:14:08;;;;;;;7.57;3.72;;;;;;;19.25;52.67;99026.50;4315066;33;34164;-95
2023/05/22 04:16:36;;;;;;;8.32;3.95;;;;;;;19.20;53.06;99027.44;4315338;33;33918;-92
2023/05/22 04:19:04;;;;;;;7.95;3.58;;;;;;;19.33;53.34;99025.41;4318545;33;34685;-94
2023/05/22 04:21:33;;;;;;;6.62;3.62;;;;;;;19.23;53.11;99023.88;4322719;33;34188;-95
2023/05/22 04:24:05;;;;;;;7.18;3.40;;;;;;;19.10;53.81;99033.00;4321058;33;33915;-94
2023/05/22 04:26:34;;;;;;;8.95;3.50;;;;;;;19.08;53.79;99032.16;4326372;33;34990;-94
2023/05/22 04:29:02;;;;;;;6.85;3.40;;;;;;;19.20;53.46;99023.97;4324582;33;34997;-94
2023/05/22 04:31:31;;;;;;;7.57;3.35;;;;;;;19.16;53.79;99032.81;4320185;33;33522;-93
2023/05/22 04:33:58;;;;;;;9.50;3.80;;;;;;;19.27;54.43;99035.19;4331042;33;33718;-95
2023/05/22 04:36:27;;;;;;;8.10;3.20;;;;;;;19.30;54.14;99037.75;4344062;33;34523;-94
2023/05/22 04:38:55;;;;;;;8.25;3.45;;;;;;;19.30;54.59;99040.37;4330770;33;34681;-96
2023/05/22 04:41:25;;;;;;;6.85;3.45;;;;;;;19.26;53.35;99031.72;4332932;33;34171;-95
2023/05/22 04:43:53;;;;;;;7.82;3.45;;;;;;;19.38;53.06;99031.41;4327693;33;34369;-92
2023/05/22 04:46:21;;;;;;;10.15;3.03;;;;;;;19.49;54.09;99036.38;4330610;33;33833;-92
2023/05/22 04:48:49;;;;;;;9.98;3.60;;;;;;;19.64;51.22;99037.78;4317028;33;34882;-94
2023/05/22 04:51:17;;;;;;;7.55;2.97;;;;;;;19.66;53.66;99051.75;4316346;33;34089;-93
2023/05/22 04:53:46;;;;;;;6.28;3.58;;;;;;;19.58;54.42;99048.44;4324742;33;34187;-94
2023/05/22 04:56:13;;;;;;;6.97;3.20;;;;;;;19.73;54.47;99047.19;4308652;33;34355;-93
2023/05/22 04:58:52;;;;;;;9.80;3.42;;;;;;;19.51;48.95;99037.22;4320794;33;34460;-95
2023/05/22 05:01:20;;;;;;;8.55;3.30;;;;;;;19.69;50.91;99042.00;4321940;33;36015;-96
2023/05/22 05:03:48;;;;;;;7.45;3.65;;;;;;;19.72;51.63;99048.97;4321535;33;34763;-92
2023/05/22 05:06:16;;;;;;;6.78;2.90;;;;;;;19.80;52.21;99048.78;4323117;33;33358;-96
2023/05/22 05:08:45;;;;;;;6.18;3.40;;;;;;;20.16;52.39;99052.19;4327672;33;33878;-91
2023/05/22 05:11:13;;;;;;;10.70;3.25;;;;;;;20.19;50.36;99049.44;4327422;33;34264;-96
2023/05/22 05:13:42;;;;;;;5.25;2.60;;;;;;;20.27;51.39;99055.37;4322354;33;34707;-88
2023/05/22 05:16:09;;;;;;;8.18;3.28;;;;;;;20.27;50.69;99046.63;4323819;33;33665;-95
2023/05/22 05:18:37;;;;;;;8.13;3.50;;;;;;;20.01;48.84;99050.84;4323882;33;34647;-89
2023/05/22 05:21:05;;;;;;;5.80;3.08;;;;;;;20.37;50.90;99056.81;4320924;33;34183;-94
2023/05/22 05:23:33;;;;;;;9.85;2.85;;;;;;;20.08;45.69;99054.16;4334026;33;34949;-91
2023/05/22 05:26:04;;;;;;;7.18;2.87;;;;;;;20.26;47.55;99060.66;4324281;33;32783;-88
2023/05/22 05:28:31;;;;;;;7.25;2.67;;;;;;;19.74;46.64;99060.34;4324535;33;33427;-93
2023/05/22 05:31:00;;;;;;;6.60;2.60;;;;;;;20.39;45.60;99057.66;4319934;33;35373;-93
2023/05/22 05:33:28;;;;;;;12.70;2.92;;;;;;;20.32;44.11;99058.72;4327919;33;34074;-93
2023/05/22 05:35:56;;;;;;;8.13;3.17;;;;;;;20.35;44.64;99061.28;4318244;33;34374;-92
2023/05/22 05:38:24;;;;;;;9.60;2.83;;;;;;;20.82;44.70;99056.41;4323863;33;33859;-93
2023/05/22 05:40:52;;;;;;;6.97;3.12;;;;;;;20.84;44.42;99051.97;4330306;33;33536;-92
2023/05/22 05:43:20;;;;;;;6.93;2.97;;;;;;;20.84;43.11;99059.88;4323547;33;34240;-92
2023/05/22 05:45:49;;;;;;;6.37;3.03;;;;;;;20.93;43.12;99060.47;4327388;33;33353;-90
2023/05/22 05:48:16;;;;;;;9.15;2.70;;;;;;;21.26;43.61;99067.31;4315629;33;33856;-92
2023/05/22 05:50:44;;;;;;;9.65;2.70;;;;;;;21.59;43.47;99065.41;4316866;33;34251;-90
2023/05/22 05:53:11;;;;;;;7.35;2.80;;;;;;;21.64;41.45;99067.88;4319196;33;34836;-90
2023/05/22 05:55:41;;;;;;;5.72;2.83;;;;;;;21.70;41.50;99059.72;4322067;33;33709;-93
2023/05/22 05:58:09;;;;;;;6.62;3.60;;;;;;;22.11;40.68;99066.19;4326670;33;33550;-90
2023/05/22 06:00:37;;;;;;;6.40;2.80;;;;;;;22.54;40.61;99058.50;4316092;33;33970;-92
2023/05/22 06:03:05;;;;;;;6.18;2.75;;;;;;;22.38;39.05;99068.78;4327660;33;34880;-91
2023/05/22 06:05:34;;;;;;;6.20;2.45;;;;;;;22.37;38.96;99058.28;4323471;33;33439;-93
2023/05/22 06:08:03;;;;;;;6.60;3.00;;;;;;;22.53;38.68;99068.22;4319974;33;33935;-92
2023/05/22 06:10:31;;;;;;;5.10;2.60;;;;;;;22.71;35.86;99069.31;4330176;33;33892;-92
2023/05/22 06:12:59;;;;;;;8.23;3.35;;;;;;;22.25;36.49;99063.09;4326901;33;33964;-92
2023/05/22 06:15:27;;;;;;;7.72;2.87;;;;;;;22.69;36.25;99068.53;4326298;33;33471;-93
2023/05/22 06:17:55;;;;;;;8.15;2.70;;;;;;;22.78;35.49;99062.87;4315643;33;34788;-92
2023/05/22 06:20:24;;;;;;;6.60;2.83;;;;;;;22.99;35.17;99060.31;4314926;33;34057;-93
2023/05/22 06:22:51;;;;;;;6.00;2.22;;;;;;;23.22;35.76;99049.72;4316621;33;35261;-92
2023/05/22 06:25:19;;;;;;;12.27;2.80;;;;;;;23.30;35.47;99050.25;4317405;33;33734;-91
2023/05/22 06:27:46;;;;;;;9.00;2.72;;;;;;;22.98;34.21;99053.34;4330109;33;34923;-93
2023/05/22 06:30:15;;;;;;;9.73;3.10;;;;;;;23.10;34.79;99058.13;4329789;33;32964;-92
2023/05/22 06:33:03;;;;;;;9.10;2.90;;;;;;;23.63;35.80;99052.41;4330949;33;34052;-93
2023/05/22 06:35:31;;;;;;;9.32;2.97;;;;;;;23.42;34.35;99056.84;4322203;33;34487;-91
2023/05/22 06:37:58;;;;;;;6.07;2.80;;;;;;;23.11;34.81;99049.28;4320997;33;33640;-93
2023/05/22 06:40:27;;;;;;;8.32;2.67;;;;;;;22.89;34.03;99057.16;4318710;33;33696;-94
2023/05/22 06:42:56;;;;;;;8.25;3.25;;;;;;;23.00;35.15;99057.66;4315087;33;34634;-94
2023/05/22 06:45:25;;;;;;;8.23;2.75;;;;;;;22.77;36.09;99074.38;4315957;33;33678;-91
2023/05/22 06:47:55;;;;;;;7.05;2.62;;;;;;;23.10;35.47;99059.91;4316381;33;34740;-91
2023/05/22 06:50:23;;;;;;;8.18;3.03;;;;;;;23.21;35.06;99069.13;4316660;33;34173;-92
2023/05/22 06:52:51;;;;;;;8.60;2.70;;;;;;;23.64;34.88;99067.38;4316800;33;34195;-93
2023/05/22 06:55:19;;;;;;;8.10;3.00;;;;;;;23.38;34.68;99064.97;4314541;33;32263;-92
2023/05/22 06:57:48;;;;;;;5.55;2.65;;;;;;;23.40;36.15;99066.59;4316585;33;34016;-91
2023/05/22 07:00:17;;;;;;;8.85;3.08;;;;;;;23.86;37.08;99069.97;4316306;33;33987;-91
2023/05/22 07:02:46;;;;;;;6.75;2.40;;;;;;;24.70;35.66;99070.69;4319672;33;33879;-93
2023/05/22 07:05:14;;;;;;;8.93;3.70;;;;;;;24.56;35.66;99058.09;4322815;33;32766;-92
2023/05/22 07:07:43;;;;;;;10.70;3.78;;;;;;;24.63;35.24;99070.13;4324284;33;34603;-93
2023/05/22 07:10:11;;;;;;;9.90;3.83;;;;;;;24.71;34.92;99062.69;4316649;33;34231;-90
2023/05/22 07:12:38;;;;;;;7.95;2.85;;;;;;;25.07;34.13;99061.00;4316224;33;34790;-93
2023/05/22 07:15:10;;;;;;;7.12;3.05;;;;;;;25.00;34.31;99058.66;4321447;33;33503;-91
2023/05/22 07:17:40;;;;;;;8.48;3.42;;;;;;;23.45;35.26;99055.81;4317992;33;33489;-92
2023/05/22 07:20:10;;;;;;;6.62;3.12;;;;;;;23.63;35.87;99062.13;4331937;33;34264;-91
2023/05/22 07:22:40;;;;;;;13.43;2.92;;;;;;;23.57;36.05;99060.62;4327562;33;35086;-90
2023/05/22 07:25:08;;;;;;;7.72;3.10;;;;;;;23.63;36.08;99068.28;4329178;33;34397;-89
2023/05/22 07:27:35;;;;;;;7.75;3.15;;;;;;;23.62;35.97;99076.31;4328846;33;33604;-90
2023/05/22 07:30:04;;;;;;;10.30;3.15;;;;;;;23.39;37.54;99080.75;4322827;33;34417;-91
2023/05/22 07:32:32;;;;;;;11.65;3.53;;;;;;;23.68;39.02;99074.31;4326045;33;33843;-91
2023/05/22 07:34:59;;;;;;;7.68;3.30;;;;;;;23.76;37.82;99084.56;4330585;33;33460;-90
2023/05/22 07:37:28;;;;;;;8.52;3.22;;;;;;;23.81;36.65;99071.13;4328441;33;34624;-91
2023/05/22 07:39:56;;;;;;;7.75;2.97;;;;;;;23.64;36.54;99069.16;4315485;33;34707;-93
2023/05/22 07:42:24;;;;;;;10.60;2.90;;;;;;;23.05;36.49;99075.97;4319301;33;34056;-93
2023/05/22 07:44:53;;;;;;;9.50;3.10;;;;;;;23.10;36.27;99068.69;4321707;33;34421;-91
2023/05/22 07:47:20;;;;;;;8.52;3.60;;;;;;;23.43;36.14;99065.63;4315722;33;34028;-94
2023/05/22 07:49:48;;;;;;;8.40;2.78;;;;;;;23.63;36.04;99070.06;4315402;33;34119;-91
2023/05/22 07:52:17;;;;;;;6.65;2.87;;;;;;;23.26;36.11;99063.66;4315676;33;34357;-92
2023/05/22 07:54:45;;;;;;;9.75;3.35;;;;;;;23.39;38.13;99066.69;4315369;33;33303;-92
2023/05/22 07:57:12;;;;;;;9.73;3.08;;;;;;;23.40;36.77;99065.75;4322313;33;34532;-92
2023/05/22 07:59:42;;;;;;;7.35;2.92;;;;;;;23.00;39.44;99070.00;4316994;33;33725;-92
2023/05/22 08:02:10;;;;;;;7.72;2.97;;;;;;;23.29;41.60;99067.03;4329324;33;34115;-92
2023/05/22 08:04:38;;;;;;;8.32;3.47;;;;;;;23.47;45.28;99067.22;4324119;33;33001;-91
2023/05/22 08:07:06;;;;;;;9.32;2.60;;;;;;;23.55;47.02;99073.03;4313927;33;33591;-92
2023/05/22 08:09:33;;;;;;;5.57;2.85;;;;;;;23.60;47.03;99073.72;4320804;33;34637;-92
2023/05/22 08:12:01;;;;;;;7.72;3.12;;;;;;;23.51;46.64;99063.50;4314879;33;34971;-91
2023/05/22 08:14:29;;;;;;;8.30;3.60;;;;;;;23.75;48.13;99065.19;4314586;33;33263;-92
2023/05/22 08:16:57;;;;;;;8.43;3.20;;;;;;;23.68;47.87;99068.16;4328986;33;33912;-92
2023/05/22 08:19:25;;;;;;;11.43;3.90;;;;;;;23.70;41.95;99064.50;4330302;33;33669;-92
2023/05/22 08:21:56;;;;;;;10.57;2.50;;;;;;;23.47;41.93;99056.63;4331568;33;33711;-93
2023/05/22 08:24:29;;;;;;;7.37;3.45;;;;;;;23.40;45.64;99076.31;4318731;33;33387;-92
2023/05/22 08:26:57;;;;;;;9.82;3.45;;;;;;;23.87;40.25;99060.28;4318624;33;34684;-92
2023/05/22 08:29:25;;;;;;;11.90;3.72;;;;;;;23.55;40.17;99065.97;4329665;33;34895;-91
2023/05/22 08:31:55;;;;;;;8.50;3.33;;;;;;;23.21;39.13;99061.19;4331799;33;35051;-91
2023/05/22 08:34:24;;;;;;;18.58;5.55;;;;;;;23.49;38.45;99065.38;4330561;33;33409;-93
2023/05/22 08:36:51;;;;;;;9.05;3.15;;;;;;;23.54;40.39;99063.41;4330381;33;33582;-92
2023/05/22 08:39:19;;;;;;;10.15;3.80;;;;;;;23.57;38.51;99068.56;4327444;33;34158;-90
2023/05/22 08:41:47;;;;;;;15.48;5.53;;;;;;;23.57;39.25;99063.28;4339002;33;34319;-89
2023/05/22 08:44:15;;;;;;;8.52;3.22;;;;;;;23.79;39.25;99063.25;4326924;33;33507;-91
2023/05/22 08:46:44;;;;;;;7.70;3.25;;;;;;;23.78;38.67;99067.66;4342734;33;34584;-92
2023/05/22 08:49:12;;;;;;;9.82;3.00;;;;;;;23.79;37.88;99061.47;4345235;33;34715;-90
2023/05/22 08:51:43;;;;;;;8.73;3.45;;;;;;;24.09;38.02;99068.12;4345018;33;33978;-92
2023/05/22 08:54:11;;;;;;;8.68;3.20;;;;;;;24.12;37.85;99066.22;4322417;33;34478;-91
2023/05/22 08:56:39;;;;;;;10.73;3.30;;;;;;;24.38;37.30;99073.00;4315588;33;34655;-90
2023/05/22 08:59:22;;;;;;;8.40;3.50;;;;;;;23.79;37.25;99074.72;4317430;33;34973;-91
2023/05/22 09:01:51;;;;;;;9.07;3.78;;;;;;;24.02;37.07;99070.22;4327329;33;34153;-91
2023/05/22 09:04:21;;;;;;;10.60;4.62;;;;;;;24.73;38.00;99071.41;4317022;33;32472;-89
2023/05/22 09:06:50;;;;;;;8.43;3.75;;;;;;;24.51;35.87;99068.91;4316431;33;33585;-91
2023/05/22 09:09:18;;;;;;;7.82;3.50;;;;;;;24.29;36.20;99062.81;4317116;33;34152;-92
2023/05/22 09:11:45;;;;;;;9.48;3.25;;;;;;;24.41;36.76;99064.94;4315700;33;33402;-89
2023/05/22 09:14:14;;;;;;;12.75;3.72;;;;;;;24.98;36.55;99059.66;4325853;33;33669;-91
2023/05/22 09:16:47;;;;;;;10.18;3.80;;;;;;;24.55;36.54;99072.28;4320739;33;34647;-92
2023/05/22 09:19:15;;;;;;;7.62;3.35;;;;;;;24.68;38.12;99065.47;4318318;33;34220;-91
2023/05/22 09:21:46;;;;;;;9.52;3.05;;;;;;;25.08;36.81;99063.59;4331799;33;33871;-92
2023/05/22 09:24:14;;;;;;;9.05;3.75;;;;;;;24.93;37.57;99064.31;4330131;33;33708;-91
2023/05/22 09:26:42;;;;;;;14.90;3.83;;;;;;;24.95;36.52;99067.75;4330484;33;33459;-90
2023/05/22 09:29:09;;;;;;;8.43;3.67;;;;;;;24.80;37.57;99073.78;4317659;33;33865;-92
2023/05/22 09:31:41;;;;;;;9.95;3.85;;;;;;;24.85;36.21;99069.09;4322371;33;34964;-89
2023/05/22 09:34:12;;;;;;;9.57;4.15;;;;;;;25.53;36.66;99061.41;4316895;33;33296;-89
2023/05/22 09:36:41;;;;;;;8.00;3.42;;;;;;;24.87;36.20;99061.97;4321066;33;34118;-89
2023/05/22 09:39:08;;;;;;;8.45;3.40;;;;;;;25.53;36.48;99059.62;4331178;33;33872;-89
2023/05/22 09:41:38;;;;;;;9.60;3.80;;;;;;;24.53;37.88;99063.53;4330823;33;34093;-89
2023/05/22 09:44:12;;;;;;;8.65;3.53;;;;;;;24.11;37.05;99067.16;4324975;33;33767;-87
2023/05/22 09:46:43;;;;;;;9.00;3.65;;;;;;;25.10;36.45;99055.59;4323539;33;33727;-89
2023/05/22 09:49:11;;;;;;;8.80;3.58;;;;;;;25.20;36.75;99057.72;4330340;33;34953;-91
2023/05/22 09:51:46;;;;;;;6.20;3.47;;;;;;;24.86;35.65;99052.28;4318964;33;33749;-91
2023/05/22 09:54:16;;;;;;;11.82;3.83;;;;;;;24.93;35.34;99054.56;4329443;33;33716;-90
2023/05/22 09:56:46;;;;;;;10.68;3.97;;;;;;;24.02;36.49;99060.47;4325955;33;34228;-91
2023/05/22 09:59:21;;;;;;;12.23;3.53;;;;;;;24.46;36.99;99056.78;4315343;33;35007;-90
2023/05/22 10:01:49;;;;;;;10.55;3.45;;;;;;;25.00;36.57;99056.00;4315580;33;33983;-90
2023/05/22 10:04:17;;;;;;;8.32;3.75;;;;;;;25.34;36.07;99049.06;4316176;33;34210;-92
2023/05/22 10:06:49;;;;;;;8.65;3.37;;;;;;;25.48;35.75;99059.00;4316270;33;33898;-91
2023/05/22 10:09:20;;;;;;;8.70;3.17;;;;;;;25.55;35.27;99049.81;4330826;33;34264;-90
2023/05/22 10:11:51;;;;;;;12.75;3.12;;;;;;;25.48;35.24;99045.72;4335685;33;34186;-92
2023/05/22 10:14:19;;;;;;;10.32;3.92;;;;;;;26.23;35.23;99049.84;4315119;33;34348;-93
2023/05/22 10:16:47;;;;;;;11.50;3.25;;;;;;;26.07;33.84;99039.19;4314934;33;34123;-92
2023/05/22 10:19:15;;;;;;;10.43;3.45;;;;;;;26.10;37.40;99039.03;4316375;33;34205;-92
2023/05/22 10:21:44;;;;;;;9.88;3.78;;;;;;;25.63;34.56;99044.09;4315052;33;33495;-93
2023/05/22 10:24:12;;;;;;;12.70;3.55;;;;;;;25.66;34.71;99038.66;4315965;33;33520;-93
2023/05/22 10:26:39;;;;;;;9.13;3.20;;;;;;;25.68;40.75;99042.06;4317224;33;34826;-93
2023/05/22 10:29:15;;;;;;;9.55;3.45;;;;;;;25.26;34.56;99030.00;4329391;33;34250;-92
2023/05/22 10:31:50;;;;;;;7.65;3.25;;;;;;;25.44;34.71;99028.25;4331173;33;33957;-93
2023/05/22 10:34:37;;;;;;;7.60;3.37;;;;;;;25.60;35.16;99034.50;4319242;33;33119;-91
2023/05/22 10:37:13;;;;;;;6.97;2.95;;;;;;;26.38;35.51;99027.78;4314947;33;34755;-92
2023/05/22 10:39:59;;;;;;;7.53;3.50;;;;;;;26.84;34.28;99014.62;4314883;33;33892;-94
2023/05/22 10:42:30;;;;;;;9.93;3.65;;;;;;;26.91;33.45;99015.16;4314614;33;33836;-91
2023/05/22 10:45:02;;;;;;;7.72;3.47;;;;;;;26.86;33.29;99009.25;4318945;33;32333;-89
2023/05/22 10:47:32;;;;;;;9.02;3.40;;;;;;;26.85;35.10;99010.16;4345126;33;33958;-91
2023/05/22 10:50:04;;;;;;;8.70;3.20;;;;;;;26.82;34.02;99010.31;4341490;33;34421;-93
2023/05/22 10:52:31;;;;;;;9.57;3.70;;;;;;;26.94;33.45;99007.00;4329390;33;34227;-92
2023/05/22 10:55:00;;;;;;;10.75;3.12;;;;;;;26.80;32.51;99001.59;4330118;33;33117;-93
2023/05/22 10:57:33;;;;;;;9.18;3.67;;;;;;;27.38;33.17;99003.59;4329485;33;33791;-92
2023/05/22 11:00:15;;;;;;;10.80;3.12;;;;;;;27.04;33.45;98999.31;4330406;33;34076;-94
2023/05/22 11:02:44;;;;;;;10.82;3.58;;;;;;;26.81;34.94;99001.50;4330454;33;35401;-92
2023/05/22 11:05:15;;;;;;;7.50;3.75;;;;;;;27.16;33.24;98993.31;4321839;33;33426;-93
2023/05/22 11:07:43;;;;;;;9.20;3.25;;;;;;;27.35;32.04;98993.09;4314576;33;34836;-93
2023/05/22 11:10:11;;;;;;;11.82;3.25;;;;;;;27.45;31.86;98988.13;4315213;33;34243;-91
2023/05/22 11:12:40;;;;;;;10.27;3.50;;;;;;;27.43;33.63;98982.88;4317826;33;34709;-92
2023/05/22 11:15:10;;;;;;;11.30;4.65;;;;;;;27.65;32.18;98977.13;4314152;33;34524;-90
2023/05/22 11:17:43;;;;;;;9.18;3.00;;;;;;;27.94;31.96;98980.72;4314561;33;34553;-89
2023/05/22 11:20:17;;;;;;;9.38;2.92;;;;;;;28.27;32.89;98974.25;4317515;33;34073;-90
2023/05/22 11:23:02;;;;;;;8.43;3.30;;;;;;;28.16;33.54;98977.56;4316051;33;33777;-92
2023/05/22 11:25:31;;;;;;;6.97;2.80;;;;;;;27.14;33.00;98981.94;4315386;33;33526;-92
2023/05/22 11:28:01;;;;;;;8.07;3.37;;;;;;;27.50;32.13;98980.69;4317587;33;35266;-93
2023/05/22 11:30:29;;;;;;;8.45;3.58;;;;;;;27.44;31.43;98973.09;4329136;33;35182;-92
2023/05/22 11:32:58;;;;;;;16.20;3.58;;;;;;;27.76;32.33;98965.84;4315931;33;34017;-93
2023/05/22 11:35:27;;;;;;;7.35;3.00;;;;;;;27.89;33.10;98962.34;4308841;33;32951;-92
2023/05/22 11:37:55;;;;;;;5.82;2.80;;;;;;;27.83;31.45;98961.84;4314454;33;33938;-92
2023/05/22 11:40:28;;;;;;;12.80;3.67;;;;;;;28.03;33.13;98968.62;4302132;33;32891;-91
2023/05/22 11:42:56;;;;;;;7.93;3.03;;;;;;;27.63;31.33;98963.91;4316144;33;34336;-93